Time;durP1;ratioP1;P1;durP2;ratioP2;P2;SDS_P1;SDS_P2;PMS_P1;PMS_P2;Temp;Humidity;BMP_temperature;BMP_pressure;BME280_temperature;BME280_humidity;BME280_pressure;Samples;Min_cycle;Max_cycle;Signal;HPM_P1;HPM_P2
2023/01/31 00:01:20;;;;;;;20.38;3.15;;;4.10;99.90;;;;;;5050913;28;20080;-66
2023/01/31 00:03:47;;;;;;;19.67;3.20;;;4.10;99.90;;;;;;5065563;28;20794;-66
2023/01/31 00:06:22;;;;;;;15.23;2.90;;;4.10;99.90;;;;;;5064367;28;20039;-66
2023/01/31 00:08:49;;;;;;;16.77;2.50;;;4.00;99.90;;;;;;5073064;28;20127;-66
2023/01/31 00:11:17;;;;;;;15.43;2.55;;;3.90;99.90;;;;;;5059738;28;20080;-66
2023/01/31 00:13:44;;;;;;;13.23;2.67;;;3.80;99.90;;;;;;5068121;28;20463;-66
2023/01/31 00:16:11;;;;;;;18.83;2.92;;;3.70;99.90;;;;;;5065734;28;20049;-66
2023/01/31 00:18:37;;;;;;;15.20;2.65;;;3.60;99.90;;;;;;5071402;28;20044;-66
2023/01/31 00:21:15;;;;;;;11.88;2.83;;;3.40;99.90;;;;;;5064469;28;20033;-66
2023/01/31 00:23:42;;;;;;;15.68;2.30;;;3.30;99.90;;;;;;5061385;28;20049;-66
2023/01/31 00:26:16;;;;;;;16.70;3.42;;;3.20;99.90;;;;;;5056920;28;20071;-67
2023/01/31 00:28:43;;;;;;;19.52;2.78;;;3.10;99.90;;;;;;5052429;28;20483;-67
2023/01/31 00:31:10;;;;;;;16.95;2.67;;;3.00;99.90;;;;;;5062680;28;20566;-67
2023/01/31 00:33:38;;;;;;;15.90;2.65;;;2.90;99.90;;;;;;5069895;28;20041;-67
2023/01/31 00:36:06;;;;;;;18.20;2.85;;;2.90;99.90;;;;;;5072613;28;20028;-67
2023/01/31 00:38:32;;;;;;;16.33;2.28;;;2.80;99.90;;;;;;5063115;28;20071;-67
2023/01/31 00:40:58;;;;;;;21.55;3.15;;;2.80;99.90;;;;;;5062241;28;20094;-67
2023/01/31 00:43:24;;;;;;;21.05;2.50;;;2.70;99.90;;;;;;5056167;28;20132;-66
2023/01/31 00:45:50;;;;;;;11.50;2.00;;;2.60;99.90;;;;;;5058950;28;20123;-66
2023/01/31 00:48:15;;;;;;;16.38;2.90;;;2.50;99.90;;;;;;5064460;28;20048;-67
2023/01/31 00:50:41;;;;;;;16.17;2.50;;;2.50;99.90;;;;;;5069161;28;20494;-67
2023/01/31 00:53:07;;;;;;;16.20;3.33;;;2.50;99.90;;;;;;5059350;28;20048;-67
2023/01/31 00:55:33;;;;;;;15.98;2.30;;;2.40;99.90;;;;;;5061896;28;20041;-67
2023/01/31 00:57:58;;;;;;;19.45;2.88;;;2.30;99.90;;;;;;5070925;28;20490;-67
2023/01/31 01:00:24;;;;;;;18.40;2.85;;;2.30;99.90;;;;;;5052933;28;20485;-67
2023/01/31 01:02:49;;;;;;;18.10;2.33;;;2.30;99.90;;;;;;5057327;28;20041;-67
2023/01/31 01:05:15;;;;;;;20.65;3.33;;;2.30;99.90;;;;;;5070876;28;20037;-67
2023/01/31 01:07:41;;;;;;;13.70;2.90;;;2.30;99.90;;;;;;5061853;28;20051;-67
2023/01/31 01:10:07;;;;;;;19.50;2.88;;;2.30;99.90;;;;;;5070709;28;20041;-67
2023/01/31 01:12:32;;;;;;;15.40;2.65;;;2.30;99.90;;;;;;5059033;28;20048;-67
2023/01/31 01:14:58;;;;;;;18.65;3.08;;;2.30;99.90;;;;;;5064531;28;20037;-67
2023/01/31 01:17:24;;;;;;;16.40;2.97;;;2.30;99.90;;;;;;5056537;28;20037;-67
2023/01/31 01:19:50;;;;;;;18.25;3.05;;;2.30;99.90;;;;;;5052007;28;20040;-67
2023/01/31 01:22:15;;;;;;;15.45;2.67;;;2.30;99.90;;;;;;5060925;28;20039;-67
2023/01/31 01:24:42;;;;;;;25.55;3.03;;;2.30;99.90;;;;;;5049192;28;20546;-67
2023/01/31 01:27:09;;;;;;;20.98;2.78;;;2.30;99.90;;;;;;5053352;28;20080;-67
2023/01/31 01:29:34;;;;;;;11.57;2.33;;;2.30;99.90;;;;;;5060344;28;20498;-67
2023/01/31 01:32:00;;;;;;;10.70;2.30;;;2.40;99.90;;;;;;5069740;28;20044;-67
2023/01/31 01:34:26;;;;;;;16.52;3.20;;;2.40;99.90;;;;;;5061200;28;20033;-67
2023/01/31 01:36:52;;;;;;;13.13;2.50;;;2.40;99.90;;;;;;5056760;28;20037;-67
2023/01/31 01:39:18;;;;;;;17.00;2.85;;;2.50;99.90;;;;;;5062948;28;20040;-67
2023/01/31 01:41:44;;;;;;;18.83;2.63;;;2.40;99.90;;;;;;5051132;28;20041;-67
2023/01/31 01:44:46;;;;;;;15.85;2.50;;;2.50;99.90;;;;;;5054738;28;20089;-67
2023/01/31 01:47:26;;;;;;;17.50;2.72;;;2.50;99.90;;;;;;5058291;28;20112;-67
2023/01/31 01:50:18;;;;;;;15.00;3.03;;;2.60;99.90;;;;;;5050300;28;20036;-67
2023/01/31 01:52:53;;;;;;;16.88;2.33;;;2.60;99.90;;;;;;5055449;28;20048;-66
2023/01/31 01:55:23;;;;;;;14.38;2.40;;;2.60;99.90;;;;;;5062731;28;20516;-67
2023/01/31 01:58:07;;;;;;;16.10;2.85;;;2.70;99.90;;;;;;5071594;28;20115;-67
2023/01/31 02:00:35;;;;;;;11.68;2.83;;;2.70;99.90;;;;;;5070662;28;20124;-67
2023/01/31 02:03:04;;;;;;;15.90;2.33;;;2.70;99.90;;;;;;5066537;28;20032;-67
2023/01/31 02:05:42;;;;;;;10.00;2.08;;;2.70;99.90;;;;;;5066708;28;20062;-67
2023/01/31 02:08:09;;;;;;;13.52;2.42;;;2.70;99.90;;;;;;5067307;28;20029;-67
2023/01/31 02:11:03;;;;;;;14.70;2.25;;;2.80;99.90;;;;;;5069280;28;20048;-67
2023/01/31 02:13:29;;;;;;;19.38;2.58;;;2.80;99.90;;;;;;5071257;28;20525;-67
2023/01/31 02:15:55;;;;;;;17.85;2.70;;;2.80;99.90;;;;;;5060079;28;20129;-67
2023/01/31 02:18:22;;;;;;;16.85;2.63;;;2.80;99.90;;;;;;5068658;28;20063;-67
2023/01/31 02:21:12;;;;;;;21.75;2.58;;;2.90;99.90;;;;;;5066148;28;20502;-67
2023/01/31 02:24:21;;;;;;;19.00;2.72;;;2.90;99.90;;;;;;5062276;28;20045;-67
2023/01/31 02:27:06;;;;;;;16.35;2.50;;;2.80;99.90;;;;;;5052458;28;20060;-67
2023/01/31 02:29:44;;;;;;;18.13;2.30;;;2.70;99.90;;;;;;5064895;28;20510;-66
2023/01/31 02:32:43;;;;;;;9.65;2.15;;;2.60;99.90;;;;;;5065768;28;20037;-66
2023/01/31 02:35:35;;;;;;;18.35;2.67;;;2.50;99.90;;;;;;5060246;28;20037;-67
2023/01/31 02:38:00;;;;;;;16.45;3.25;;;2.50;99.90;;;;;;5066280;28;20512;-67
2023/01/31 02:40:44;;;;;;;23.02;2.67;;;2.50;99.90;;;;;;5070775;28;20052;-66
2023/01/31 02:43:30;;;;;;;11.32;2.72;;;2.60;99.90;;;;;;5068015;28;20124;-66
2023/01/31 02:46:13;;;;;;;11.73;2.92;;;2.60;99.90;;;;;;5066776;28;20040;-67
2023/01/31 02:49:06;;;;;;;8.85;2.53;;;2.70;99.90;;;;;;5074530;28;20044;-66
2023/01/31 02:52:14;;;;;;;13.10;2.97;;;2.80;99.90;;;;;;5070154;28;20036;-66
2023/01/31 02:56:13;;;;;;;14.18;2.65;;;2.80;99.90;;;;;;5062065;28;20052;-66
2023/01/31 02:57:17;;;;;;;9.07;2.35;;;2.80;99.90;;;;;;5073193;28;20052;-67
2023/01/31 02:59:43;;;;;;;18.63;2.92;;;2.90;99.90;;;;;;5068630;28;20540;-67
2023/01/31 03:02:10;;;;;;;15.30;2.67;;;2.90;99.90;;;;;;5067517;28;20033;-67
2023/01/31 03:04:37;;;;;;;13.82;2.88;;;3.00;99.90;;;;;;5072119;28;20052;-67
2023/01/31 03:07:12;;;;;;;26.52;3.38;;;3.00;99.90;;;;;;5067356;28;20036;-67
2023/01/31 03:10:00;;;;;;;16.23;3.13;;;3.00;99.90;;;;;;5064984;28;20043;-67
2023/01/31 03:12:26;;;;;;;17.70;3.15;;;3.10;99.90;;;;;;5062169;28;20064;-67
2023/01/31 03:15:09;;;;;;;19.88;3.10;;;3.10;99.90;;;;;;5073714;28;20606;-66
2023/01/31 03:18:04;;;;;;;14.75;2.90;;;3.10;99.90;;;;;;5061136;28;20071;-67
2023/01/31 03:20:51;;;;;;;12.25;2.50;;;3.10;99.90;;;;;;5063728;28;20111;-67
2023/01/31 03:23:21;;;;;;;16.50;3.40;;;3.20;99.90;;;;;;5063852;28;20517;-66
2023/01/31 03:25:48;;;;;;;12.27;2.33;;;3.30;99.90;;;;;;5051719;28;20059;-66
2023/01/31 03:28:18;;;;;;;13.35;2.63;;;3.30;99.90;;;;;;5062101;28;20036;-66
2023/01/31 03:30:58;;;;;;;15.57;2.67;;;3.40;99.90;;;;;;5064891;28;20571;-67
2023/01/31 03:33:39;;;;;;;18.23;2.70;;;3.50;99.90;;;;;;5063214;28;20078;-66
2023/01/31 03:36:28;;;;;;;15.63;2.10;;;3.50;99.90;;;;;;5062937;28;20648;-66
2023/01/31 03:38:57;;;;;;;16.98;2.50;;;3.60;99.90;;;;;;5052435;28;20037;-66
2023/01/31 03:41:41;;;;;;;17.48;3.13;;;3.70;99.90;;;;;;5049882;28;20041;-67
2023/01/31 03:44:18;;;;;;;18.27;4.05;;;3.70;99.90;;;;;;5066084;28;20494;-67
2023/01/31 03:46:50;;;;;;;13.95;2.67;;;3.70;99.90;;;;;;5064705;28;20037;-66
2023/01/31 03:49:19;;;;;;;20.55;2.75;;;3.70;99.90;;;;;;5069327;28;20055;-67
2023/01/31 03:51:53;;;;;;;13.20;2.70;;;3.80;99.90;;;;;;5054153;28;20056;-67
2023/01/31 03:54:24;;;;;;;15.15;3.35;;;3.80;99.90;;;;;;5063410;28;20402;-67
2023/01/31 03:57:20;;;;;;;15.55;2.40;;;3.90;99.90;;;;;;5072224;28;20115;-66
2023/01/31 03:59:52;;;;;;;12.68;2.90;;;3.90;99.90;;;;;;5061140;28;20463;-67
2023/01/31 04:02:26;;;;;;;17.40;2.83;;;3.90;99.90;;;;;;5065179;28;20044;-66
2023/01/31 04:05:04;;;;;;;20.80;3.63;;;3.90;99.90;;;;;;5053188;28;20066;-67
2023/01/31 04:07:30;;;;;;;9.98;2.53;;;4.00;99.90;;;;;;5051552;28;20196;-67
2023/01/31 04:09:56;;;;;;;8.93;3.20;;;4.00;99.90;;;;;;5068132;28;20456;-66
2023/01/31 04:12:22;;;;;;;18.35;2.80;;;4.00;99.90;;;;;;5068252;28;20550;-67
2023/01/31 04:14:48;;;;;;;15.55;2.70;;;4.00;99.90;;;;;;5066235;28;20115;-66
2023/01/31 04:17:13;;;;;;;14.90;3.20;;;4.00;99.90;;;;;;5061716;28;20403;-66
2023/01/31 04:19:39;;;;;;;15.00;2.97;;;4.00;99.90;;;;;;5061982;28;20112;-66
2023/01/31 04:22:04;;;;;;;18.10;3.00;;;4.00;99.90;;;;;;5072042;28;20036;-66
2023/01/31 04:24:30;;;;;;;15.82;3.28;;;4.00;99.90;;;;;;5058604;28;20040;-66
2023/01/31 04:26:56;;;;;;;12.65;2.53;;;4.00;99.90;;;;;;5055704;28;20044;-66
2023/01/31 04:29:21;;;;;;;12.00;2.97;;;4.00;99.90;;;;;;5062679;28;20087;-66
2023/01/31 04:31:47;;;;;;;14.90;2.83;;;4.10;99.90;;;;;;5067263;28;20041;-67
2023/01/31 04:34:12;;;;;;;15.63;3.13;;;4.10;99.90;;;;;;5071215;28;20446;-67
2023/01/31 04:36:38;;;;;;;16.55;3.70;;;4.10;99.90;;;;;;5063807;28;20040;-66
2023/01/31 04:39:04;;;;;;;16.08;3.47;;;4.10;99.90;;;;;;5070995;28;20048;-67
2023/01/31 04:41:29;;;;;;;14.15;3.33;;;4.10;99.90;;;;;;5062572;28;20045;-67
2023/01/31 04:43:55;;;;;;;16.17;2.95;;;4.10;99.90;;;;;;5063680;28;20483;-67
2023/01/31 04:46:20;;;;;;;20.27;3.63;;;4.10;99.90;;;;;;5063653;28;20040;-67
2023/01/31 04:48:46;;;;;;;18.63;3.15;;;4.20;99.90;;;;;;5062119;28;20052;-67
2023/01/31 04:51:12;;;;;;;20.02;3.42;;;4.20;99.90;;;;;;5064223;28;20037;-67
2023/01/31 04:53:37;;;;;;;19.83;3.78;;;4.20;99.90;;;;;;5063493;28;20509;-67
2023/01/31 04:56:04;;;;;;;28.08;3.65;;;4.30;99.90;;;;;;5071607;28;20434;-67
2023/01/31 04:58:30;;;;;;;17.77;3.90;;;4.30;99.90;;;;;;5064297;28;20119;-67
2023/01/31 05:00:56;;;;;;;15.82;3.90;;;4.30;99.90;;;;;;5063829;28;20284;-67
2023/01/31 05:03:22;;;;;;;17.02;3.42;;;4.30;99.90;;;;;;5067557;28;20036;-67
2023/01/31 05:05:48;;;;;;;17.92;4.07;;;4.40;99.90;;;;;;5062574;28;20538;-67
2023/01/31 05:08:14;;;;;;;18.65;3.20;;;4.40;99.90;;;;;;5069686;28;20050;-67
2023/01/31 05:10:41;;;;;;;21.98;4.00;;;4.50;99.90;;;;;;5062788;28;20032;-68
2023/01/31 05:13:08;;;;;;;22.00;4.22;;;4.50;99.90;;;;;;5070386;28;20051;-67
2023/01/31 05:15:33;;;;;;;20.02;3.65;;;4.50;99.90;;;;;;5063920;28;20029;-67
2023/01/31 05:18:02;;;;;;;21.42;4.40;;;4.50;99.90;;;;;;5066715;28;20552;-67
2023/01/31 05:20:37;;;;;;;17.15;4.05;;;4.50;99.90;;;;;;5055389;28;20048;-67
2023/01/31 05:23:02;;;;;;;17.58;4.20;;;4.60;99.90;;;;;;5060074;28;20040;-67
2023/01/31 05:25:29;;;;;;;22.98;4.25;;;4.70;99.90;;;;;;5061315;28;20044;-67
2023/01/31 05:27:55;;;;;;;23.05;4.75;;;4.70;99.90;;;;;;5069978;28;20036;-67
2023/01/31 05:30:23;;;;;;;22.65;5.03;;;4.80;99.90;;;;;;5061956;28;20376;-67
2023/01/31 05:32:49;;;;;;;22.23;4.72;;;4.80;99.90;;;;;;5058674;28;20055;-67
2023/01/31 05:35:15;;;;;;;28.20;5.35;;;4.90;99.90;;;;;;5066093;28;20040;-67
2023/01/31 05:37:41;;;;;;;24.83;4.55;;;4.80;99.90;;;;;;5061001;28;20495;-67
2023/01/31 05:40:12;;;;;;;21.42;4.32;;;4.90;99.90;;;;;;5061786;28;20040;-67
2023/01/31 05:42:38;;;;;;;16.25;4.30;;;4.80;99.90;;;;;;5062642;28;20040;-67
2023/01/31 05:45:05;;;;;;;17.00;4.72;;;4.80;99.90;;;;;;5071269;28;20040;-67
2023/01/31 05:47:30;;;;;;;21.13;5.03;;;4.80;99.90;;;;;;5066427;28;20048;-67
2023/01/31 05:49:56;;;;;;;29.08;5.05;;;4.70;99.90;;;;;;5066828;28;20517;-67
2023/01/31 05:52:22;;;;;;;21.10;5.07;;;4.80;99.90;;;;;;5066181;28;20045;-67
2023/01/31 05:54:47;;;;;;;25.83;4.82;;;4.80;99.90;;;;;;5068001;28;20040;-67
2023/01/31 05:57:15;;;;;;;19.92;4.75;;;4.80;99.90;;;;;;5048739;28;20438;-67
2023/01/31 05:59:41;;;;;;;21.27;5.50;;;4.80;99.90;;;;;;5057051;28;20037;-67
2023/01/31 06:02:07;;;;;;;20.65;5.15;;;4.80;99.90;;;;;;5053382;28;20101;-68
2023/01/31 06:04:33;;;;;;;27.55;6.18;;;4.80;99.90;;;;;;5056593;28;20044;-69
2023/01/31 06:06:59;;;;;;;34.55;6.32;;;4.90;99.90;;;;;;5066122;28;20057;-68
2023/01/31 06:09:25;;;;;;;22.67;6.13;;;4.90;99.90;;;;;;5061037;28;20365;-68
2023/01/31 06:11:51;;;;;;;27.33;6.30;;;5.00;99.90;;;;;;5039138;28;20584;-67
2023/01/31 06:14:16;;;;;;;24.70;7.10;;;5.10;99.90;;;;;;5058277;28;20044;-66
2023/01/31 06:16:42;;;;;;;25.17;6.53;;;5.10;99.90;;;;;;5056375;28;20513;-67
2023/01/31 06:19:08;;;;;;;28.52;7.80;;;5.20;99.90;;;;;;5048130;28;20047;-66
2023/01/31 06:21:34;;;;;;;28.30;7.15;;;5.30;99.90;;;;;;5047348;28;20056;-66
2023/01/31 06:23:59;;;;;;;32.42;8.70;;;5.30;99.90;;;;;;5056775;28;20059;-67
2023/01/31 06:26:25;;;;;;;34.90;9.25;;;5.50;99.90;;;;;;5061338;28;20116;-67
2023/01/31 06:28:50;;;;;;;35.90;9.20;;;5.60;99.90;;;;;;5066913;28;20123;-67
2023/01/31 06:31:17;;;;;;;36.90;8.90;;;5.70;99.90;;;;;;5060163;28;20499;-67
2023/01/31 06:33:42;;;;;;;30.75;8.75;;;5.80;99.90;;;;;;5057998;28;20041;-67
2023/01/31 06:36:08;;;;;;;31.17;9.13;;;5.90;99.90;;;;;;5045562;28;20044;-67
2023/01/31 06:38:33;;;;;;;23.58;8.00;;;5.90;99.90;;;;;;5055653;28;20619;-67
2023/01/31 06:40:59;;;;;;;39.15;8.52;;;6.10;99.90;;;;;;5061199;28;20049;-67
2023/01/31 06:43:25;;;;;;;25.10;8.15;;;6.00;99.90;;;;;;5064271;28;20519;-67
2023/01/31 06:45:50;;;;;;;36.50;10.02;;;6.10;99.90;;;;;;5052962;28;20741;-67
2023/01/31 06:48:16;;;;;;;32.70;9.00;;;6.10;99.90;;;;;;5059529;28;20044;-67
2023/01/31 06:50:43;;;;;;;30.73;8.80;;;6.10;99.90;;;;;;5056376;28;20039;-67
2023/01/31 06:53:08;;;;;;;28.00;8.07;;;6.10;99.90;;;;;;5071855;28;20077;-67
2023/01/31 06:55:34;;;;;;;23.70;7.82;;;6.10;99.90;;;;;;5059991;28;20132;-67
2023/01/31 06:57:59;;;;;;;30.27;7.93;;;6.10;99.90;;;;;;5066722;28;20025;-67
2023/01/31 07:00:25;;;;;;;27.45;8.85;;;6.10;99.90;;;;;;5070133;28;20037;-67
2023/01/31 07:02:52;;;;;;;25.48;8.30;;;6.10;99.90;;;;;;5066597;28;20028;-67
2023/01/31 07:05:18;;;;;;;33.22;7.93;;;6.20;99.90;;;;;;5063548;28;20117;-67
2023/01/31 07:07:45;;;;;;;31.80;6.68;;;6.20;99.90;;;;;;5065764;28;20040;-67
2023/01/31 07:10:12;;;;;;;29.55;7.55;;;6.20;99.90;;;;;;5072674;28;20503;-67
2023/01/31 07:12:38;;;;;;;29.58;7.38;;;6.20;99.90;;;;;;5061869;28;20033;-67
2023/01/31 07:15:04;;;;;;;29.27;6.72;;;6.20;99.90;;;;;;5066931;28;20056;-67
2023/01/31 07:17:29;;;;;;;24.08;7.13;;;6.20;99.90;;;;;;5070377;28;20040;-67
2023/01/31 07:19:55;;;;;;;29.00;6.82;;;6.20;99.90;;;;;;5068945;28;20095;-67
2023/01/31 07:22:21;;;;;;;24.48;5.80;;;6.20;99.90;;;;;;5063616;28;20047;-67
2023/01/31 07:24:49;;;;;;;22.75;6.93;;;6.30;99.90;;;;;;5061861;28;20549;-67
2023/01/31 07:27:14;;;;;;;21.25;5.82;;;6.30;99.90;;;;;;5053737;28;20514;-67
2023/01/31 07:29:40;;;;;;;30.23;7.53;;;6.30;99.90;;;;;;5048175;28;20084;-67
2023/01/31 07:32:06;;;;;;;18.65;6.47;;;6.30;99.90;;;;;;5059808;28;20036;-67
2023/01/31 07:34:32;;;;;;;23.98;6.70;;;6.40;99.90;;;;;;5064476;28;20032;-67
2023/01/31 07:36:57;;;;;;;18.48;5.63;;;6.40;99.90;;;;;;5064933;28;20398;-67
2023/01/31 07:39:23;;;;;;;20.60;5.63;;;6.30;99.90;;;;;;5063262;28;20033;-67
2023/01/31 07:41:49;;;;;;;25.20;6.25;;;6.40;99.90;;;;;;5072632;28;20033;-67
2023/01/31 07:44:14;;;;;;;31.00;6.20;;;6.40;99.90;;;;;;5072248;28;20044;-67
2023/01/31 07:46:41;;;;;;;19.48;5.68;;;6.40;99.90;;;;;;5062282;28;20112;-67
2023/01/31 07:49:09;;;;;;;24.50;5.82;;;6.40;99.90;;;;;;5062543;28;20036;-67
2023/01/31 07:51:34;;;;;;;28.70;5.57;;;6.40;99.90;;;;;;5070278;28;20044;-67
2023/01/31 07:54:00;;;;;;;21.17;5.63;;;6.50;99.90;;;;;;5069183;28;20404;-67
2023/01/31 07:56:26;;;;;;;24.58;5.32;;;6.50;99.90;;;;;;5063596;28;20032;-67
2023/01/31 07:58:52;;;;;;;21.52;6.00;;;6.50;99.90;;;;;;5073079;28;20033;-67
2023/01/31 08:04:06;;;;;;;23.27;6.13;;;6.50;99.90;;;;;;5061941;28;20464;-67
2023/01/31 08:06:31;;;;;;;16.35;5.28;;;6.40;99.90;;;;;;5063230;28;20170;-67
2023/01/31 08:08:59;;;;;;;21.38;5.75;;;6.40;99.90;;;;;;5069154;28;20119;-67
2023/01/31 08:11:24;;;;;;;24.77;5.60;;;6.50;99.90;;;;;;5067854;28;20053;-67
2023/01/31 08:13:50;;;;;;;22.88;5.80;;;6.50;99.90;;;;;;5063623;28;20036;-67
2023/01/31 08:16:16;;;;;;;18.27;5.40;;;6.50;99.90;;;;;;5072602;28;20071;-67
2023/01/31 08:18:41;;;;;;;22.90;5.72;;;6.50;99.90;;;;;;5061950;28;20048;-67
2023/01/31 08:21:07;;;;;;;28.95;5.50;;;6.50;99.90;;;;;;5059870;28;20040;-67
2023/01/31 08:23:34;;;;;;;22.35;6.00;;;6.60;99.90;;;;;;5057852;28;20040;-67
2023/01/31 08:26:10;;;;;;;21.73;5.88;;;6.60;99.90;;;;;;5052814;28;20051;-68
2023/01/31 08:28:37;;;;;;;22.88;6.25;;;6.60;99.90;;;;;;5067403;28;20044;-67
2023/01/31 08:31:03;;;;;;;21.52;6.68;;;6.60;99.90;;;;;;5065243;28;20101;-67
2023/01/31 08:33:29;;;;;;;17.42;5.10;;;6.60;99.90;;;;;;5072865;28;20120;-67
2023/01/31 08:35:55;;;;;;;28.33;6.43;;;6.60;99.90;;;;;;5067628;28;20116;-67
2023/01/31 08:38:20;;;;;;;18.95;6.45;;;6.60;99.90;;;;;;5066801;28;20044;-68
2023/01/31 08:40:46;;;;;;;26.27;6.47;;;6.60;99.90;;;;;;5064136;28;20090;-68
2023/01/31 08:43:12;;;;;;;22.02;6.25;;;6.60;99.90;;;;;;5060380;28;20076;-67
2023/01/31 08:45:38;;;;;;;28.70;7.30;;;6.60;99.90;;;;;;5063578;28;20083;-67
2023/01/31 08:48:04;;;;;;;22.50;5.95;;;6.60;99.90;;;;;;5065421;28;20024;-67
2023/01/31 08:50:31;;;;;;;20.48;5.65;;;6.60;99.90;;;;;;5054527;28;20486;-67
2023/01/31 08:53:01;;;;;;;24.20;6.25;;;6.60;99.90;;;;;;5063528;28;20072;-67
2023/01/31 08:55:28;;;;;;;18.75;5.63;;;6.60;99.90;;;;;;5060404;28;20040;-68
2023/01/31 08:57:54;;;;;;;18.67;6.50;;;6.70;99.90;;;;;;5063873;28;20116;-67
2023/01/31 09:00:20;;;;;;;20.08;7.60;;;6.70;99.90;;;;;;5058827;28;20120;-67
2023/01/31 09:02:53;;;;;;;24.23;7.80;;;6.70;99.90;;;;;;5056342;28;20041;-67
2023/01/31 09:05:19;;;;;;;22.20;6.65;;;6.70;99.90;;;;;;5058757;28;20040;-67
2023/01/31 09:07:46;;;;;;;24.10;8.18;;;6.70;99.90;;;;;;5071089;28;20076;-68
2023/01/31 09:10:12;;;;;;;17.05;7.15;;;6.70;99.90;;;;;;5070325;28;20079;-68
2023/01/31 09:12:38;;;;;;;23.60;7.43;;;6.70;99.90;;;;;;5054622;28;20139;-68
2023/01/31 09:15:04;;;;;;;24.10;6.68;;;6.80;99.90;;;;;;5070129;28;20462;-67
2023/01/31 09:17:30;;;;;;;22.17;7.70;;;6.80;99.90;;;;;;5060098;28;20523;-67
2023/01/31 09:19:56;;;;;;;23.55;8.00;;;6.80;99.90;;;;;;5063645;28;20075;-67
2023/01/31 09:22:22;;;;;;;29.88;7.43;;;6.80;99.90;;;;;;5069791;28;20044;-68
2023/01/31 09:24:47;;;;;;;23.13;6.55;;;6.80;99.90;;;;;;5055461;28;20037;-68
2023/01/31 09:27:13;;;;;;;19.80;6.60;;;6.90;99.90;;;;;;5061309;28;20759;-68
2023/01/31 09:29:39;;;;;;;22.17;6.53;;;6.90;99.90;;;;;;5063517;28;20044;-68
2023/01/31 09:32:05;;;;;;;24.33;6.47;;;7.00;99.90;;;;;;5060659;28;20098;-67
2023/01/31 09:34:31;;;;;;;23.33;6.60;;;7.00;99.90;;;;;;5053709;28;20049;-67
2023/01/31 09:36:56;;;;;;;20.98;5.82;;;7.00;99.90;;;;;;5062204;28;20064;-67
2023/01/31 09:39:23;;;;;;;21.08;6.07;;;7.10;99.90;;;;;;5071531;28;20028;-67
2023/01/31 09:42:00;;;;;;;19.90;5.93;;;7.10;99.90;;;;;;5066711;28;20063;-68
2023/01/31 09:44:40;;;;;;;21.20;6.45;;;7.10;99.90;;;;;;5067902;28;20122;-67
2023/01/31 09:47:23;;;;;;;23.48;6.43;;;7.20;99.90;;;;;;5056241;28;20127;-67
2023/01/31 09:49:57;;;;;;;23.90;5.93;;;7.20;99.90;;;;;;5066008;28;20045;-67
2023/01/31 09:52:23;;;;;;;19.15;5.65;;;7.30;99.90;;;;;;5065598;28;20049;-67
2023/01/31 09:54:48;;;;;;;16.48;4.55;;;7.40;99.90;;;;;;5062057;28;22674;-68
2023/01/31 09:57:53;;;;;;;19.42;6.07;;;7.30;99.90;;;;;;5055398;28;20029;-67
2023/01/31 10:00:35;;;;;;;17.38;4.97;;;7.40;99.90;;;;;;5047877;28;20135;-67
2023/01/31 10:03:21;;;;;;;15.30;4.50;;;7.40;99.90;;;;;;5060993;28;20395;-67
2023/01/31 10:06:08;;;;;;;20.88;4.93;;;7.40;99.90;;;;;;5055895;28;20110;-67
2023/01/31 10:08:55;;;;;;;20.73;5.63;;;7.40;99.90;;;;;;5065360;28;20186;-67
2023/01/31 10:11:39;;;;;;;20.13;5.28;;;7.40;99.90;;;;;;5061623;28;20083;-68
2023/01/31 10:14:10;;;;;;;12.15;4.35;;;7.30;99.90;;;;;;5071573;28;20032;-67
2023/01/31 10:16:44;;;;;;;19.30;4.95;;;7.30;99.90;;;;;;5055226;28;20041;-67
2023/01/31 10:19:28;;;;;;;16.55;5.05;;;7.30;99.90;;;;;;5060526;28;20033;-67
2023/01/31 10:22:04;;;;;;;19.27;4.78;;;7.30;99.90;;;;;;5055333;28;20037;-67
2023/01/31 10:24:45;;;;;;;26.33;5.20;;;7.40;99.90;;;;;;5066068;28;20048;-67
2023/01/31 10:27:18;;;;;;;21.63;5.20;;;7.50;99.90;;;;;;5067096;28;20028;-67
2023/01/31 10:29:50;;;;;;;22.02;5.50;;;7.50;99.90;;;;;;5074222;28;20101;-68
2023/01/31 10:32:29;;;;;;;14.88;4.75;;;7.50;99.90;;;;;;5064807;28;20041;-68
2023/01/31 10:35:11;;;;;;;12.35;4.55;;;7.50;99.90;;;;;;5063167;28;20116;-67
2023/01/31 10:37:43;;;;;;;16.63;5.32;;;7.50;99.90;;;;;;5072811;28;20032;-67
2023/01/31 10:40:22;;;;;;;17.85;4.97;;;7.50;99.90;;;;;;5060856;28;20052;-67
2023/01/31 10:42:59;;;;;;;16.77;4.53;;;7.50;99.90;;;;;;5057622;28;20064;-67
2023/01/31 10:45:29;;;;;;;18.30;5.03;;;7.50;99.90;;;;;;5060835;28;20048;-68
2023/01/31 10:48:17;;;;;;;19.23;4.32;;;7.50;99.90;;;;;;5064375;28;20131;-67
2023/01/31 10:50:55;;;;;;;19.80;4.57;;;7.50;99.90;;;;;;5062665;28;20037;-67
2023/01/31 10:53:44;;;;;;;17.40;4.57;;;7.50;99.90;;;;;;5057371;28;20041;-67
2023/01/31 10:56:18;;;;;;;16.33;4.05;;;7.50;99.90;;;;;;5001998;28;20052;-67
2023/01/31 10:58:45;;;;;;;15.13;4.68;;;7.50;99.90;;;;;;5062998;28;20037;-67
2023/01/31 11:01:13;;;;;;;16.65;4.72;;;7.50;99.90;;;;;;5063865;28;20083;-68
2023/01/31 11:03:40;;;;;;;20.58;4.97;;;7.50;99.90;;;;;;5074973;28;20051;-68
2023/01/31 11:06:05;;;;;;;18.52;5.55;;;7.50;99.90;;;;;;5058884;28;20082;-67
2023/01/31 11:08:37;;;;;;;23.40;4.93;;;7.40;99.90;;;;;;5055372;28;20041;-67
2023/01/31 11:11:12;;;;;;;22.05;6.95;;;7.40;99.90;;;;;;5060072;28;20072;-67
2023/01/31 11:13:38;;;;;;;18.17;5.72;;;7.40;99.90;;;;;;5053525;28;20075;-67
2023/01/31 11:16:09;;;;;;;15.63;5.35;;;7.30;99.90;;;;;;5121682;22;20102;-67
2023/01/31 11:18:45;;;;;;;22.63;6.95;;;7.30;99.90;;;;;;5074777;28;20116;-67
2023/01/31 11:21:25;;;;;;;23.10;6.10;;;7.30;99.90;;;;;;5074385;28;20040;-67
2023/01/31 11:24:01;;;;;;;20.23;6.10;;;7.30;99.90;;;;;;5090746;28;20086;-67
2023/01/31 11:26:33;;;;;;;22.40;5.38;;;7.30;99.90;;;;;;5062257;28;20086;-66
2023/01/31 11:29:01;;;;;;;15.95;5.78;;;7.30;99.90;;;;;;5052294;28;20482;-67
2023/01/31 11:31:37;;;;;;;21.20;5.53;;;7.30;99.90;;;;;;5053778;28;20040;-67
2023/01/31 11:34:04;;;;;;;23.52;6.63;;;7.30;99.90;;;;;;5067029;28;20032;-67
2023/01/31 11:36:42;;;;;;;21.45;6.63;;;7.40;99.90;;;;;;5073029;28;20040;-67
2023/01/31 11:39:53;;;;;;;16.90;6.40;;;7.40;99.90;;;;;;5070206;28;20033;-67
2023/01/31 11:42:18;;;;;;;19.90;7.10;;;7.40;99.90;;;;;;5030009;28;20100;-68
2023/01/31 11:44:54;;;;;;;24.27;6.80;;;7.40;99.90;;;;;;5061388;28;20064;-65
2023/01/31 11:47:31;;;;;;;25.67;7.57;;;7.40;99.90;;;;;;5067126;28;20042;-66
2023/01/31 11:49:58;;;;;;;24.15;7.18;;;7.50;99.90;;;;;;5065138;28;20045;-65
2023/01/31 11:52:32;;;;;;;25.08;7.40;;;7.50;99.90;;;;;;5072212;28;20099;-65
2023/01/31 11:55:15;;;;;;;19.45;7.95;;;7.50;99.90;;;;;;5066355;28;20028;-65
2023/01/31 11:57:40;;;;;;;24.70;6.63;;;7.50;99.90;;;;;;5072266;28;20044;-65
2023/01/31 12:00:23;;;;;;;25.52;7.35;;;7.60;99.90;;;;;;5073376;28;20040;-65
2023/01/31 12:03:13;;;;;;;24.83;7.40;;;7.60;99.90;;;;;;5064818;28;20044;-65
2023/01/31 12:05:45;;;;;;;25.23;6.95;;;7.70;99.90;;;;;;5067739;28;20083;-65
2023/01/31 12:08:30;;;;;;;22.08;7.35;;;7.70;99.90;;;;;;5073064;28;20048;-65
2023/01/31 12:10:57;;;;;;;19.75;6.90;;;7.80;99.90;;;;;;5071307;28;20486;-65
2023/01/31 12:13:24;;;;;;;22.13;5.82;;;7.80;99.90;;;;;;5065524;28;20076;-65
2023/01/31 12:16:00;;;;;;;29.92;6.20;;;7.80;99.90;;;;;;5074574;28;20040;-65
2023/01/31 12:18:37;;;;;;;21.05;5.07;;;7.90;99.90;;;;;;5076679;28;20059;-65
2023/01/31 12:21:18;;;;;;;20.67;5.80;;;7.90;99.90;;;;;;5067664;28;20077;-65
2023/01/31 12:23:58;;;;;;;23.13;5.80;;;8.00;99.90;;;;;;5072250;28;20063;-65
2023/01/31 12:26:55;;;;;;;16.98;5.03;;;8.00;99.90;;;;;;5072964;28;20059;-65
2023/01/31 12:29:45;;;;;;;22.90;5.45;;;8.10;99.90;;;;;;5061555;28;20569;-65
2023/01/31 12:32:48;;;;;;;21.67;4.88;;;8.10;99.90;;;;;;5065902;28;20040;-65
2023/01/31 12:35:25;;;;;;;17.05;5.03;;;8.10;99.90;;;;;;5067065;28;20032;-65
2023/01/31 12:38:13;;;;;;;22.13;5.63;;;8.10;99.90;;;;;;5062551;28;20074;-65
2023/01/31 12:40:48;;;;;;;19.10;4.95;;;8.20;99.90;;;;;;5070668;28;20091;-65
2023/01/31 12:43:39;;;;;;;19.92;4.40;;;8.30;99.90;;;;;;5072455;28;20041;-66
2023/01/31 12:46:23;;;;;;;18.17;4.20;;;8.20;99.90;;;;;;5065656;28;20076;-66
2023/01/31 12:49:07;;;;;;;18.85;4.60;;;8.30;99.90;;;;;;5071629;28;20394;-66
2023/01/31 12:51:53;;;;;;;18.77;4.68;;;8.30;99.90;;;;;;5071703;28;20554;-66
2023/01/31 12:54:46;;;;;;;13.85;3.83;;;8.30;99.90;;;;;;5057459;28;20059;-65
2023/01/31 12:57:29;;;;;;;15.00;4.40;;;8.30;99.90;;;;;;5065950;28;20538;-66
2023/01/31 13:00:24;;;;;;;19.13;4.43;;;8.40;99.90;;;;;;5072377;28;20036;-66
2023/01/31 13:03:16;;;;;;;24.40;4.38;;;8.40;99.90;;;;;;5067234;28;20040;-66
2023/01/31 13:05:48;;;;;;;22.90;4.57;;;8.40;99.90;;;;;;5069684;28;20166;-66
2023/01/31 13:08:27;;;;;;;15.60;4.00;;;8.40;99.90;;;;;;5070778;28;20452;-66
2023/01/31 13:11:08;;;;;;;17.58;4.30;;;8.50;99.90;;;;;;5063177;28;20440;-66
2023/01/31 13:13:47;;;;;;;18.20;4.25;;;8.50;99.90;;;;;;5068415;28;20036;-66